Latest Weather Observations for Argyle

IDW60801

Issued at 3:35 pm WST Friday 24 October 2014 (issued every 30 minutes, with the page automatically refreshed every 10 minutes)

About weather observations | Map of weather stations | Latest weather observations for WA | Other Formats
Station Details ID: 002064 Name: ARGYLE AERODROME Lat: -16.64 Lon: 128.45 Height: 164.0 m
Data from the previous 72 hours. | See also: Recent months at Argyle
Date/Time
WST
Temp
°C
App
Temp
°C
Dew
Point
Rel
Hum
%
Delta-T
°C
Wind Press
QNH
hPa
Press
MSL
hPa
Rain
since 9 am
mm
Dir
 
Spd
km/h
Gust
km/h
Spd
kts
Gust
kts
24/03:30pm 37.3 35.5 12.1 22 15.3 NNE 13 20 7 11 1009.7 - 0.0
24/03:00pm 38.0 35.5 11.2 20 16.1 ENE 15 26 8 14 1009.9 1008.6 0.0
24/02:30pm 37.9 36.4 11.8 21 15.8 NNE 11 17 6 9 1010.1 - 0.0
24/02:00pm 37.8 34.8 10.8 19 16.1 NE 17 24 9 13 1010.3 - 0.0
24/01:30pm 37.9 35.0 11.0 20 16.1 ENE 17 28 9 15 1010.5 - 0.0
24/01:00pm 37.6 34.9 11.8 21 15.6 ENE 17 26 9 14 1010.8 - 0.0
24/12:30pm 37.4 35.4 11.4 21 15.6 ENE 13 24 7 13 1011.3 - 0.0
24/12:00pm 37.0 34.5 11.0 21 15.5 ENE 15 28 8 15 1011.9 1010.7 0.0
24/11:30am 36.4 33.4 11.8 22 14.8 E 19 24 10 13 1012.4 - 0.0
24/11:00am 37.1 35.0 13.7 24 14.5 NNE 17 26 9 14 1012.8 - 0.0
24/10:30am 35.3 34.4 13.7 27 13.3 N 11 15 6 8 1013.2 - 0.0
24/10:00am 35.5 34.7 16.0 31 12.4 E 15 24 8 13 1013.7 - 0.0
24/09:30am 34.9 36.1 18.3 37 10.9 E 9 13 5 7 1013.9 - 0.0
24/08:30am 32.8 33.5 18.8 43 9.2 NNE 13 19 7 10 1014.4 - 0.0
24/08:00am 32.1 32.4 17.9 42 9.2 NE 13 17 7 9 1014.4 - 0.0
24/07:30am 31.9 32.5 17.6 42 9.2 NE 11 15 6 8 1014.5 - 0.0
24/07:00am 30.7 32.2 17.6 45 8.4 ENE 6 9 3 5 1014.2 - 0.0
24/06:30am 29.0 31.3 17.7 50 7.2 E 2 7 1 4 1013.9 - 0.0
24/06:00am 27.4 35.4 27.4 100 0.0 CALM 0 0 0 0 1013.6 1012.3 0.0
24/05:30am 25.8 31.1 25.8 100 0.0 E 9 11 5 6 1013.3 - 0.0
24/05:00am 25.5 30.6 25.5 100 0.0 ESE 9 11 5 6 1013.1 - 0.0
24/04:30am 27.8 34.4 27.8 100 0.0 ESE 9 11 5 6 1012.9 - 0.0
24/04:00am 28.0 35.3 28.0 100 0.0 S 6 7 3 4 1012.2 - 0.0
24/03:30am 28.1 35.4 28.0 99 0.1 N 6 6 3 3 1012.1 - 0.0
24/03:00am 28.4 36.4 28.4 100 0.0 NW 4 6 2 3 1011.9 1010.7 0.0
24/02:30am 28.9 36.9 28.9 100 0.0 W 6 7 3 4 1011.8 - 0.0
24/02:00am 28.8 36.7 28.8 100 0.0 WSW 6 7 3 4 1011.8 - 0.0
24/01:30am 29.4 36.8 29.4 100 0.0 N 11 13 6 7 1012.0 - 0.0
24/01:00am 29.8 37.1 29.7 99 0.1 N 13 15 7 8 1012.2 - 0.0
24/12:30am 30.1 38.5 30.1 100 0.0 N 9 11 5 6 1012.7 - 0.0
24/12:00am 30.7 38.8 30.7 100 0.0 N 13 17 7 9 1012.8 1011.5 0.0
 
Date/Time
WST
Temp
°C
App
Temp
°C
Dew
Point
Rel
Hum
%
Delta-T
°C
Wind Press
QNH
hPa
Press
MSL
hPa
Rain
since 9 am
mm
Dir
 
Spd
km/h
Gust
km/h
Spd
kts
Gust
kts
23/11:30pm 30.9 39.6 30.9 100 0.0 NNW 11 15 6 8 1012.9 - 0.0
23/11:00pm 31.3 39.6 30.9 98 0.3 NNW 13 17 7 9 1013.0 - 0.0
23/10:30pm 31.5 31.5 17.3 42 9.1 N 13 17 7 9 1013.1 - 0.0
23/10:00pm 31.6 31.4 15.6 38 10.0 N 11 13 6 7 1013.0 - 0.0
23/09:30pm 31.9 31.7 15.6 37 10.2 NNW 11 13 6 7 1013.1 - 0.0
23/09:00pm 32.4 32.2 15.6 36 10.5 NNW 11 15 6 8 1013.1 1011.8 0.0
23/08:30pm 32.9 32.7 15.7 35 10.8 NNW 11 15 6 8 1012.8 - 0.0
23/08:00pm 33.3 32.3 15.6 34 11.1 N 15 19 8 10 1012.5 - 0.0
23/07:30pm 33.6 32.4 14.1 30 12.0 N 13 19 7 10 1012.1 - 0.0
23/07:00pm 34.1 33.0 11.8 25 13.3 NE 9 11 5 6 1011.6 - 0.0
23/06:30pm 34.4 32.9 11.8 25 13.5 NNE 11 13 6 7 1011.2 - 0.0
23/06:00pm 34.8 33.4 10.9 23 14.1 NE 9 11 5 6 1010.8 1009.5 0.0
23/05:30pm 35.5 34.6 11.3 23 14.4 NE 7 11 4 6 1010.6 - 0.0
23/05:00pm 36.5 34.4 9.8 19 15.6 NE 11 15 6 8 1010.3 - 0.0
23/04:30pm 37.0 33.6 9.3 18 16.1 NE 17 24 9 13 1009.9 - 0.0
23/04:00pm 37.4 34.0 9.2 18 16.4 NNE 17 26 9 14 1009.6 - 0.0
23/03:30pm 38.1 34.2 8.5 16 17.1 NNE 19 24 10 13 1009.6 - 0.0
23/03:00pm 37.8 34.9 9.7 18 16.5 ENE 15 24 8 13 1009.7 1008.4 0.0
23/02:30pm 37.7 34.2 8.9 17 16.7 ENE 17 32 9 17 1009.9 - 0.0
23/02:00pm 38.1 34.4 7.9 16 17.3 ENE 17 26 9 14 1010.0 - 0.0
23/01:30pm 38.9 34.7 3.7 11 19.0 NNE 15 20 8 11 1010.4 - 0.0
23/01:00pm 38.0 33.2 2.6 11 18.7 NE 17 26 9 14 1010.6 - 0.0
23/12:30pm 38.5 34.8 8.0 15 17.5 NE 17 30 9 16 1011.0 - 0.0
23/12:00pm 37.7 33.7 8.9 17 16.7 NE 20 28 11 15 1011.5 1010.3 0.0
23/11:30am 37.4 33.9 10.1 19 16.1 NNE 19 24 10 13 1011.9 - 0.0
23/11:00am 36.3 35.2 12.1 23 14.6 ENE 9 19 5 10 1012.5 - 0.0
23/10:30am 36.5 33.8 13.0 24 14.4 NE 19 28 10 15 1013.0 - 0.0
23/10:00am 36.1 33.8 14.2 27 13.6 E 19 24 10 13 1013.5 - 0.0
23/09:30am 35.2 33.8 14.5 29 12.9 NNE 15 20 8 11 1013.9 - 0.0
23/09:00am 33.6 33.4 16.7 36 10.8 N 13 19 7 10 1014.2 1012.9 0.0
23/08:30am 32.4 32.4 18.1 42 9.3 NE 15 19 8 10 1014.6 - 0.0
23/08:00am 31.5 31.8 18.8 46 8.3 NNE 15 22 8 12 1014.6 - 0.0
23/07:30am 30.8 31.9 18.1 46 8.2 NNE 9 17 5 9 1014.5 - 0.0
23/07:00am 29.6 29.7 17.5 48 7.7 NNE 13 20 7 11 1014.4 - 0.0
23/06:30am 27.9 29.0 17.1 51 6.8 NW 7 9 4 5 1014.1 - 0.0
23/06:00am 26.5 26.8 17.1 56 5.9 NNW 11 15 6 8 1013.9 1012.6 0.0
23/05:30am 25.5 27.0 18.1 63 4.7 E 7 9 4 5 1013.6 - 0.0
23/05:00am 24.3 24.6 17.1 64 4.5 E 11 15 6 8 1013.4 - 0.0
23/04:30am 24.9 24.8 16.1 58 5.4 E 11 13 6 7 1012.9 - 0.0
23/04:00am 27.0 28.6 17.0 54 6.3 SSW 4 6 2 3 1012.1 - 0.0
23/03:30am 27.7 29.5 16.5 50 7.0 NW 2 6 1 3 1012.0 - 0.0
23/03:00am 28.0 29.3 16.1 48 7.4 NNW 4 7 2 4 1011.8 1010.6 0.0
23/02:30am 28.1 29.0 16.6 49 7.2 WNW 7 9 4 5 1011.8 - 0.0
23/02:00am 28.5 30.2 16.3 47 7.6 W 2 9 1 5 1011.7 - 0.0
23/01:30am 28.5 29.4 16.5 48 7.5 WNW 7 9 4 5 1011.5 - 0.0
23/01:00am 28.7 29.7 16.8 48 7.5 NW 7 9 4 5 1011.8 - 0.0
23/12:30am 29.0 29.9 16.6 47 7.8 W 7 9 4 5 1012.0 - 0.0
23/12:00am 29.2 29.8 16.8 47 7.8 NW 9 13 5 7 1012.5 1011.2 0.0
 
Date/Time
WST
Temp
°C
App
Temp
°C
Dew
Point
Rel
Hum
%
Delta-T
°C
Wind Press
QNH
hPa
Press
MSL
hPa
Rain
since 9 am
mm
Dir
 
Spd
km/h
Gust
km/h
Spd
kts
Gust
kts
22/11:30pm 29.9 30.0 16.6 44 8.4 NNW 11 13 6 7 1012.7 - 0.0
22/11:00pm 30.1 30.2 16.6 44 8.5 NNW 11 13 6 7 1012.9 - 0.0
22/10:30pm 30.7 30.9 16.8 43 8.8 NW 11 13 6 7 1013.2 - 0.0
22/10:00pm 31.4 31.2 16.7 41 9.3 N 13 17 7 9 1013.4 - 0.0
22/09:30pm 31.7 31.4 16.5 40 9.6 N 13 17 7 9 1013.4 - 0.0
22/09:00pm 32.0 32.1 16.5 39 9.8 NNW 11 15 6 8 1013.2 1011.9 0.0
22/08:30pm 32.6 31.9 16.5 38 10.2 N 15 19 8 10 1013.0 - 0.0
22/08:00pm 33.0 32.0 16.7 37 10.4 N 17 20 9 11 1012.7 - 0.0
22/07:30pm 33.4 32.3 16.4 36 10.8 N 17 24 9 13 1012.5 - 0.0
22/07:00pm 34.1 30.6 10.8 24 13.7 N 20 28 11 15 1011.8 - 0.0
22/06:30pm 34.7 32.0 7.3 18 15.3 NE 11 13 6 7 1011.3 - 0.0
22/06:00pm 35.4 33.7 8.3 19 15.4 NNE 7 9 4 5 1011.0 1009.7 0.0
22/05:30pm 36.4 33.4 6.2 15 16.7 NNE 11 15 6 8 1010.6 - 0.0
22/05:00pm 37.4 34.7 5.7 14 17.5 NNE 9 13 5 7 1010.3 - 0.0
22/04:30pm 37.9 33.9 5.1 13 18.0 NNE 15 24 8 13 1010.2 - 0.0
22/04:00pm 38.4 34.9 5.5 13 18.2 NE 13 20 7 11 1010.1 - 0.0
22/03:30pm 38.2 36.1 8.1 16 17.3 NNE 9 17 5 9 1010.1 - 0.0
22/03:00pm 38.1 35.1 7.9 16 17.3 NNE 13 20 7 11 1010.2 1008.9 0.0
22/02:30pm 38.7 35.3 7.8 15 17.7 ENE 15 30 8 16 1010.3 - 0.0
22/02:00pm 38.4 35.6 8.5 16 17.3 NNE 13 20 7 11 1010.6 - 0.0
22/01:30pm 38.4 36.4 8.8 16 17.2 E 9 20 5 11 1010.9 - 0.0
22/01:00pm 38.6 35.8 8.5 16 17.4 NE 13 22 7 12 1011.4 - 0.0
22/12:30pm 37.9 33.6 7.7 16 17.2 ENE 20 32 11 17 1012.0 - 0.0
22/12:00pm 38.8 34.1 6.0 13 18.3 ENE 20 30 11 16 1012.5 1011.2 0.0
22/11:30am 37.7 33.0 6.0 14 17.6 NE 20 32 11 17 1013.0 - 0.0
22/11:00am 37.6 32.2 4.6 13 17.9 NE 22 37 12 20 1013.4 - 0.0
22/10:30am 37.4 32.5 7.0 15 17.1 NE 22 32 12 17 1013.8 - 0.0
22/10:00am 36.8 33.0 9.2 18 16.0 NNE 19 30 10 16 1014.0 - 0.0
22/09:30am 35.8 32.7 11.5 23 14.5 N 19 24 10 13 1014.4 - 0.0
22/09:00am 35.0 33.5 13.2 27 13.3 E 13 19 7 10 1015.1 1013.8 0.0
22/08:30am 32.4 33.9 16.7 39 10.0 NNE 4 9 2 5 1015.3 - 0.0
22/08:00am 31.1 32.7 16.9 42 9.0 S 4 9 2 5 1015.4 - 0.0
22/07:30am 30.8 32.3 17.7 45 8.4 ESE 6 9 3 5 1015.3 - 0.0
22/07:00am 29.0 30.3 17.5 49 7.3 SE 7 11 4 6 1015.1 - 0.0
22/06:30am 27.7 28.4 17.1 52 6.7 ESE 9 11 5 6 1014.9 - 0.0
22/06:00am 26.3 27.0 17.0 56 5.8 E 9 13 5 7 1014.7 1013.4 0.0
22/05:30am 25.6 26.7 16.6 57 5.6 E 6 11 3 6 1014.1 - 0.0
22/05:00am 25.2 26.3 17.0 60 5.1 ESE 7 9 4 5 1013.8 - 0.0
22/04:30am 26.6 28.2 17.8 58 5.6 S 6 7 3 4 1013.5 - 0.0
22/04:00am 26.8 28.0 17.3 56 6.0 WNW 7 9 4 5 1013.2 - 0.0
22/03:30am 26.7 28.0 17.2 56 6.0 W 6 7 3 4 1012.9 - 0.0
22/03:00am 27.3 28.7 17.3 54 6.3 NW 6 7 3 4 1012.6 1011.3 0.0
22/02:30am 27.6 28.8 17.3 53 6.5 NNW 7 7 4 4 1012.7 - 0.0
22/02:00am 27.6 29.0 17.3 53 6.5 W 6 9 3 5 1012.6 - 0.0
22/01:30am 27.6 28.8 17.3 53 6.5 NW 7 9 4 5 1012.7 - 0.0
22/01:00am 28.3 29.5 17.4 51 6.9 N 7 9 4 5 1012.8 - 0.0
22/12:30am 28.6 29.7 17.2 50 7.2 NW 7 9 4 5 1013.0 - 0.0
22/12:00am 28.9 29.3 17.2 49 7.4 N 11 - 6 - - 1011.9 -
 
Date/Time
WST
Temp
°C
App
Temp
°C
Dew
Point
Rel
Hum
%
Delta-T
°C
Wind Press
QNH
hPa
Press
MSL
hPa
Rain
since 9 am
mm
Dir
 
Spd
km/h
Gust
km/h
Spd
kts
Gust
kts
21/11:30pm 29.5 29.4 17.0 47 7.9 NNW 13 15 7 8 1013.5 - 0.0
21/11:00pm 29.2 29.3 16.6 46 7.9 NW 11 13 6 7 1013.8 - 0.0
21/10:30pm 29.8 31.1 17.0 46 8.1 NNW 6 9 3 5 1014.4 - 0.0
21/10:00pm 29.9 30.9 16.9 45 8.2 ESE 7 9 4 5 1014.6 - 0.0
21/09:30pm 30.7 31.2 16.6 42 8.9 N 9 11 5 6 1014.5 - 0.0
21/09:00pm 31.5 31.1 16.3 40 9.6 N 13 15 7 8 1014.4 1013.1 0.0
21/08:30pm 31.8 31.2 15.6 37 10.1 N 13 19 7 10 1014.2 - 0.0
21/08:00pm 32.6 32.3 12.6 29 12.0 W 6 7 3 4 1013.7 - 0.0
21/07:30pm 32.6 32.1 12.1 28 12.2 N 6 6 3 3 1013.4 - 0.0
21/07:00pm 33.8 33.0 11.8 26 13.1 N 7 9 4 5 1013.2 - 0.0
21/06:30pm 34.1 33.0 12.0 26 13.2 NNE 9 9 5 5 1012.9 - 0.0
21/06:00pm 34.4 33.6 11.8 25 13.5 NNE 7 9 4 5 1012.6 1011.3 0.0
21/05:30pm 35.4 33.8 11.4 23 14.3 NNE 11 15 6 8 1012.2 - 0.0
21/05:00pm 36.2 34.3 10.4 21 15.2 NNE 11 15 6 8 1011.8 - 0.0
21/04:30pm 36.3 34.4 11.9 23 14.7 NNE 13 20 7 11 1011.6 - 0.0
21/04:00pm 36.8 34.5 11.7 22 15.1 ENE 15 20 8 11 1011.4 - 0.0

Other Formats:

Comma delimited format used in spreadsheet applications
http://www.bom.gov.au/fwo/IDW60801/IDW60801.94217.axf

JavaScript Object Notation format (JSON) in row-major order
http://www.bom.gov.au/fwo/IDW60801/IDW60801.94217.json